PWSweather.com
Personal Weather Stations
Station Observations
UWIDEPER1
Brown County, Depere, WI 54115

Brown CountyDepere, WI 54115

Lat: 44.44, Lon: -88.05

Elevation: 610

Station Type: Acurite 5in1

www.depereweather.com

High Low Average
Temperature 75.6°F24.2°C 66.4°F19.1°C 71.2°F21.8°C
Dew Point 73.3°F22.9°C 60.2°F15.7°C 68.6°F20.3°C
Winds 5.8 mph 9.3 kmh Calm Calm 2.0 mph S3.2 kmh S
Wind Gusts 10.4 mph16.7 kmh -- 3.0 mph4.8 kmh
Humidity 98% 75% 92%
Pressure 30.00 in1015.9 mb 29.80 in1009.1 mb -
Precipitation 2.03 in51.6 mm - -
Hour Temp Dew Point Humidity Winds Wind Gusts Pressure Precip Precip Rate Daily Precip Total
12:00 AM 72.1°F22.3°C 70.9°F21.6°C 96% 1.2 mph W1.9 kmh W 2.3 mph3.7 kmh 29.84 in1010.5 mb - 0.21 in5.3 mm 0.21 in5.3 mm
12:10 AM 72.0°F22.2°C 70.8°F21.6°C 96% 1.2 mph SE1.9 kmh SE 1.2 mph1.9 kmh 29.84 in1010.5 mb - 0.24 in6.1 mm 0.03 in0.8 mm
12:15 AM 72.0°F22.2°C 70.8°F21.6°C 96% 1.2 mph SW1.9 kmh SW 3.5 mph5.6 kmh 29.86 in1011.2 mb - 0.25 in6.4 mm 0.04 in1.0 mm
12:20 AM 72.0°F22.2°C 70.8°F21.6°C 96% 1.2 mph SSE1.9 kmh SSE -- 29.86 in1011.2 mb - 0.31 in7.9 mm 0.10 in2.5 mm
12:25 AM 71.8°F22.1°C 70.6°F21.4°C 96% Calm Calm 1.2 mph1.9 kmh 29.85 in1010.8 mb - 0.39 in9.9 mm 0.18 in4.6 mm
12:30 AM 71.8°F22.1°C 70.6°F21.4°C 96% 2.3 mph WSW3.7 kmh WSW 6.9 mph11.1 kmh 29.84 in1010.5 mb - 0.45 in11.4 mm 0.25 in6.4 mm
12:35 AM 71.4°F21.9°C 70.2°F21.2°C 96% 2.3 mph SSW3.7 kmh SSW 3.5 mph5.6 kmh 29.83 in1010.2 mb - 0.48 in12.2 mm 0.28 in7.1 mm
12:40 AM 71.4°F21.9°C 70.2°F21.2°C 96% 1.2 mph W1.9 kmh W 2.3 mph3.7 kmh 29.83 in1010.2 mb - 0.44 in11.2 mm 0.29 in7.4 mm
12:45 AM 71.4°F21.9°C 70.2°F21.2°C 96% 1.2 mph SW1.9 kmh SW 1.2 mph1.9 kmh 29.83 in1010.2 mb - 0.38 in9.7 mm 0.30 in7.6 mm
12:50 AM 71.4°F21.9°C 70.2°F21.2°C 96% 1.2 mph SW1.9 kmh SW 1.2 mph1.9 kmh 29.84 in1010.5 mb - 0.36 in9.1 mm 0.30 in7.6 mm
12:55 AM 71.4°F21.9°C 70.2°F21.2°C 96% 2.3 mph S3.7 kmh S 3.5 mph5.6 kmh 29.83 in1010.2 mb - 0.37 in9.4 mm 0.32 in8.1 mm
01:00 AM 71.8°F22.1°C 70.6°F21.4°C 96% 2.3 mph SSW3.7 kmh SSW 3.5 mph5.6 kmh 29.84 in1010.5 mb - 0.34 in8.6 mm 0.34 in8.6 mm
01:10 AM 71.4°F21.9°C 70.2°F21.2°C 96% 3.5 mph S5.6 kmh S 6.9 mph11.1 kmh 29.83 in1010.2 mb - 0.37 in9.4 mm 0.39 in9.9 mm
01:15 AM 71.4°F21.9°C 70.8°F21.6°C 98% 3.5 mph S5.6 kmh S 3.5 mph5.6 kmh 29.82 in1009.8 mb - 0.36 in9.1 mm 0.40 in10.2 mm
01:20 AM 71.4°F21.9°C 70.8°F21.6°C 98% 2.3 mph S3.7 kmh S 3.5 mph5.6 kmh 29.82 in1009.8 mb - 0.33 in8.4 mm 0.41 in10.4 mm
01:25 AM 71.4°F21.9°C 70.8°F21.6°C 98% 3.5 mph S5.6 kmh S 2.3 mph3.7 kmh 29.83 in1010.2 mb - 0.26 in6.6 mm 0.42 in10.7 mm
01:30 AM 71.4°F21.9°C 70.8°F21.6°C 98% 2.3 mph SSW3.7 kmh SSW 2.3 mph3.7 kmh 29.83 in1010.2 mb - 0.20 in5.1 mm 0.42 in10.7 mm
01:35 AM 71.4°F21.9°C 70.8°F21.6°C 98% 3.5 mph SW5.6 kmh SW 4.6 mph7.4 kmh 29.82 in1009.8 mb - 0.15 in3.8 mm 0.43 in10.9 mm
01:40 AM 71.4°F21.9°C 70.8°F21.6°C 98% 4.6 mph E7.4 kmh E 4.6 mph7.4 kmh 29.83 in1010.2 mb - 0.14 in3.6 mm 0.43 in10.9 mm
01:45 AM 71.4°F21.9°C 70.8°F21.6°C 98% 3.5 mph SW5.6 kmh SW 3.5 mph5.6 kmh 29.83 in1010.2 mb - 0.13 in3.3 mm 0.43 in10.9 mm
01:50 AM 71.4°F21.9°C 70.8°F21.6°C 98% 3.5 mph S5.6 kmh S 6.9 mph11.1 kmh 29.82 in1009.8 mb - 0.14 in3.6 mm 0.44 in11.2 mm
01:55 AM 71.4°F21.9°C 70.8°F21.6°C 98% 2.3 mph SW3.7 kmh SW 3.5 mph5.6 kmh 29.82 in1009.8 mb - 0.12 in3.0 mm 0.44 in11.2 mm
02:00 AM 71.4°F21.9°C 70.8°F21.6°C 98% 2.3 mph S3.7 kmh S 3.5 mph5.6 kmh 29.83 in1010.2 mb - 0.10 in2.5 mm 0.44 in11.2 mm
02:10 AM 71.4°F21.9°C 70.8°F21.6°C 98% 3.5 mph S5.6 kmh S 3.5 mph5.6 kmh 29.83 in1010.2 mb - 0.05 in1.3 mm 0.44 in11.2 mm
02:15 AM 71.4°F21.9°C 70.8°F21.6°C 98% 3.5 mph S5.6 kmh S 4.6 mph7.4 kmh 29.82 in1009.8 mb - 0.04 in1.0 mm 0.44 in11.2 mm
02:20 AM 71.4°F21.9°C 70.8°F21.6°C 98% 3.5 mph SSW5.6 kmh SSW 3.5 mph5.6 kmh 29.81 in1009.5 mb - 0.03 in0.8 mm 0.44 in11.2 mm
02:25 AM 71.4°F21.9°C 70.8°F21.6°C 98% 4.6 mph SSE7.4 kmh SSE 10.4 mph16.7 kmh 29.81 in1009.5 mb - 0.04 in1.0 mm 0.45 in11.4 mm
02:30 AM 71.4°F21.9°C 70.8°F21.6°C 98% 3.5 mph SSE5.6 kmh SSE 3.5 mph5.6 kmh 29.81 in1009.5 mb - 0.04 in1.0 mm 0.46 in11.7 mm
02:35 AM 71.4°F21.9°C 70.8°F21.6°C 98% 4.6 mph SW7.4 kmh SW 6.9 mph11.1 kmh 29.80 in1009.1 mb - 0.04 in1.0 mm 0.47 in11.9 mm
02:40 AM 71.4°F21.9°C 70.8°F21.6°C 98% 2.3 mph S3.7 kmh S 6.9 mph11.1 kmh 29.80 in1009.1 mb - 0.06 in1.5 mm 0.49 in12.4 mm
02:45 AM 71.4°F21.9°C 70.8°F21.6°C 98% 3.5 mph SW5.6 kmh SW 5.8 mph9.3 kmh 29.81 in1009.5 mb - 0.07 in1.8 mm 0.50 in12.7 mm
02:50 AM 71.4°F21.9°C 70.8°F21.6°C 98% 5.8 mph SSW9.3 kmh SSW 9.2 mph14.8 kmh 29.81 in1009.5 mb - 0.08 in2.0 mm 0.52 in13.2 mm
02:55 AM 71.4°F21.9°C 70.8°F21.6°C 98% 5.8 mph SSW9.3 kmh SSW 9.2 mph14.8 kmh 29.81 in1009.5 mb - 0.10 in2.5 mm 0.54 in13.7 mm
03:00 AM 71.4°F21.9°C 70.8°F21.6°C 98% 4.6 mph SE7.4 kmh SE 10.4 mph16.7 kmh 29.81 in1009.5 mb - 0.10 in2.5 mm 0.54 in13.7 mm
03:10 AM 71.4°F21.9°C 70.8°F21.6°C 98% 3.5 mph S5.6 kmh S 3.5 mph5.6 kmh 29.81 in1009.5 mb - 0.12 in3.0 mm 0.56 in14.2 mm
03:15 AM 71.4°F21.9°C 70.8°F21.6°C 98% 2.3 mph SSE3.7 kmh SSE 2.3 mph3.7 kmh 29.80 in1009.1 mb - 0.12 in3.0 mm 0.56 in14.2 mm
03:20 AM 71.4°F21.9°C 70.8°F21.6°C 98% 2.3 mph SSW3.7 kmh SSW 3.5 mph5.6 kmh 29.80 in1009.1 mb - 0.12 in3.0 mm 0.56 in14.2 mm
03:25 AM 71.4°F21.9°C 70.8°F21.6°C 98% 2.3 mph S3.7 kmh S 2.3 mph3.7 kmh 29.80 in1009.1 mb - 0.11 in2.8 mm 0.56 in14.2 mm
03:30 AM 71.4°F21.9°C 70.8°F21.6°C 98% 2.3 mph S3.7 kmh S 3.5 mph5.6 kmh 29.80 in1009.1 mb - 0.10 in2.5 mm 0.56 in14.2 mm
03:35 AM 71.4°F21.9°C 70.8°F21.6°C 98% 2.3 mph S3.7 kmh S 3.5 mph5.6 kmh 29.81 in1009.5 mb - 0.09 in2.3 mm 0.56 in14.2 mm
03:40 AM 71.4°F21.9°C 70.8°F21.6°C 98% 3.5 mph S5.6 kmh S 3.5 mph5.6 kmh 29.81 in1009.5 mb - 0.07 in1.8 mm 0.56 in14.2 mm
03:45 AM 71.4°F21.9°C 70.8°F21.6°C 98% 2.3 mph S3.7 kmh S 3.5 mph5.6 kmh 29.81 in1009.5 mb - 0.06 in1.5 mm 0.56 in14.2 mm
03:50 AM 71.4°F21.9°C 70.8°F21.6°C 98% 1.2 mph SE1.9 kmh SE 1.2 mph1.9 kmh 29.82 in1009.8 mb - 0.04 in1.0 mm 0.56 in14.2 mm
03:55 AM 71.4°F21.9°C 70.8°F21.6°C 98% 1.2 mph S1.9 kmh S 4.6 mph7.4 kmh 29.82 in1009.8 mb - 0.04 in1.0 mm 0.57 in14.5 mm
04:00 AM 71.4°F21.9°C 70.8°F21.6°C 98% 2.3 mph SW3.7 kmh SW 3.5 mph5.6 kmh 29.82 in1009.8 mb - 0.04 in1.0 mm 0.58 in14.7 mm
04:10 AM 71.4°F21.9°C 70.8°F21.6°C 98% 3.5 mph WSW5.6 kmh WSW 5.8 mph9.3 kmh 29.82 in1009.8 mb - 0.03 in0.8 mm 0.59 in15.0 mm
04:15 AM 71.8°F22.1°C 71.2°F21.8°C 98% 3.5 mph SE5.6 kmh SE 6.9 mph11.1 kmh 29.82 in1009.8 mb - 0.05 in1.3 mm 0.61 in15.5 mm
04:20 AM 71.8°F22.1°C 71.2°F21.8°C 98% 4.6 mph S7.4 kmh S 6.9 mph11.1 kmh 29.82 in1009.8 mb - 0.06 in1.5 mm 0.62 in15.7 mm
04:25 AM 71.9°F22.2°C 71.3°F21.8°C 98% 3.5 mph SSW5.6 kmh SSW 4.6 mph7.4 kmh 29.82 in1009.8 mb - 0.08 in2.0 mm 0.64 in16.3 mm
04:30 AM 72.0°F22.2°C 71.4°F21.9°C 98% 3.5 mph S5.6 kmh S 4.6 mph7.4 kmh 29.82 in1009.8 mb - 0.09 in2.3 mm 0.65 in16.5 mm
04:35 AM 72.0°F22.2°C 71.4°F21.9°C 98% 3.5 mph SSW5.6 kmh SSW 9.2 mph14.8 kmh 29.82 in1009.8 mb - 0.10 in2.5 mm 0.66 in16.8 mm
04:40 AM 72.0°F22.2°C 71.4°F21.9°C 98% 3.5 mph S5.6 kmh S 3.5 mph5.6 kmh 29.82 in1009.8 mb - 0.11 in2.8 mm 0.67 in17.0 mm
04:45 AM 72.1°F22.3°C 71.5°F21.9°C 98% 3.5 mph WSW5.6 kmh WSW 4.6 mph7.4 kmh 29.82 in1009.8 mb - 0.12 in3.0 mm 0.68 in17.3 mm
04:50 AM 72.1°F22.3°C 71.5°F21.9°C 98% 4.6 mph S7.4 kmh S 6.9 mph11.1 kmh 29.82 in1009.8 mb - 0.12 in3.0 mm 0.68 in17.3 mm
04:55 AM 72.1°F22.3°C 71.5°F21.9°C 98% 4.6 mph WSW7.4 kmh WSW 6.9 mph11.1 kmh 29.82 in1009.8 mb - 0.11 in2.8 mm 0.68 in17.3 mm
05:00 AM 72.1°F22.3°C 71.5°F21.9°C 98% 2.3 mph SSW3.7 kmh SSW 3.5 mph5.6 kmh 29.81 in1009.5 mb - 0.11 in2.8 mm 0.69 in17.5 mm
05:10 AM 72.0°F22.2°C 71.4°F21.9°C 98% 3.5 mph SW5.6 kmh SW 5.8 mph9.3 kmh 29.84 in1010.5 mb - 0.17 in4.3 mm 0.76 in19.3 mm
05:15 AM 71.8°F22.1°C 71.2°F21.8°C 98% 3.5 mph WSW5.6 kmh WSW 4.6 mph7.4 kmh 29.83 in1010.2 mb - 0.21 in5.3 mm 0.82 in20.8 mm
05:20 AM 71.8°F22.1°C 71.2°F21.8°C 98% 3.5 mph W5.6 kmh W 8.1 mph13.0 kmh 29.83 in1010.2 mb - 0.25 in6.4 mm 0.87 in22.1 mm
05:25 AM 71.8°F22.1°C 71.2°F21.8°C 98% 4.6 mph NNE7.4 kmh NNE 6.9 mph11.1 kmh 29.83 in1010.2 mb - 0.34 in8.6 mm 0.98 in24.9 mm
05:30 AM 72.0°F22.2°C 71.4°F21.9°C 98% 4.6 mph W7.4 kmh W 4.6 mph7.4 kmh 29.84 in1010.5 mb - 0.49 in12.4 mm 1.14 in29.0 mm
05:35 AM 71.8°F22.1°C 71.2°F21.8°C 98% 5.8 mph SW9.3 kmh SW 8.1 mph13.0 kmh 29.84 in1010.5 mb - 0.60 in15.2 mm 1.26 in32.0 mm
05:40 AM 71.4°F21.9°C 70.8°F21.6°C 98% 3.5 mph WSW5.6 kmh WSW 4.6 mph7.4 kmh 29.84 in1010.5 mb - 0.67 in17.0 mm 1.34 in34.0 mm
05:45 AM 71.4°F21.9°C 70.8°F21.6°C 98% 3.5 mph NNW5.6 kmh NNW 4.6 mph7.4 kmh 29.83 in1010.2 mb - 0.69 in17.5 mm 1.37 in34.8 mm
05:50 AM 71.1°F21.7°C 70.5°F21.4°C 98% 4.6 mph SW7.4 kmh SW 8.1 mph13.0 kmh 29.85 in1010.8 mb - 0.78 in19.8 mm 1.46 in37.1 mm
05:55 AM 70.5°F21.4°C 69.9°F21.1°C 98% 4.6 mph SSW7.4 kmh SSW 3.5 mph5.6 kmh 29.85 in1010.8 mb - 0.89 in22.6 mm 1.57 in39.9 mm
06:00 AM 70.5°F21.4°C 69.9°F21.1°C 98% 2.3 mph SW3.7 kmh SW 2.3 mph3.7 kmh 29.83 in1010.2 mb - 1.03 in26.2 mm 1.72 in43.7 mm
06:10 AM 70.5°F21.4°C 69.9°F21.1°C 98% 1.2 mph SSW1.9 kmh SSW 3.5 mph5.6 kmh 29.83 in1010.2 mb - 1.08 in27.4 mm 1.80 in45.7 mm
06:15 AM 70.5°F21.4°C 69.9°F21.1°C 98% 2.3 mph SW3.7 kmh SW 3.5 mph5.6 kmh 29.84 in1010.5 mb - 1.02 in25.9 mm 1.83 in46.5 mm
06:20 AM 70.5°F21.4°C 69.9°F21.1°C 98% 3.5 mph W5.6 kmh W 4.6 mph7.4 kmh 29.84 in1010.5 mb - 0.99 in25.1 mm 1.85 in47.0 mm
06:25 AM 70.5°F21.4°C 69.9°F21.1°C 98% 4.6 mph WSW7.4 kmh WSW 10.4 mph16.7 kmh 29.84 in1010.5 mb - 0.89 in22.6 mm 1.87 in47.5 mm
06:30 AM 70.5°F21.4°C 69.9°F21.1°C 98% 5.8 mph WSW9.3 kmh WSW 6.9 mph11.1 kmh 29.83 in1010.2 mb - 0.78 in19.8 mm 1.90 in48.3 mm
06:35 AM 70.5°F21.4°C 69.9°F21.1°C 98% 5.8 mph W9.3 kmh W 5.8 mph9.3 kmh 29.83 in1010.2 mb - 0.65 in16.5 mm 1.92 in48.8 mm
06:40 AM 70.5°F21.4°C 69.9°F21.1°C 98% 3.5 mph S5.6 kmh S 4.6 mph7.4 kmh 29.83 in1010.2 mb - 0.62 in15.7 mm 1.93 in49.0 mm
06:45 AM 70.3°F21.3°C 69.7°F20.9°C 98% 3.5 mph SW5.6 kmh SW 3.5 mph5.6 kmh 29.83 in1010.2 mb - 0.58 in14.7 mm 1.94 in49.3 mm
06:50 AM 70.3°F21.3°C 69.7°F20.9°C 98% 3.5 mph SW5.6 kmh SW 5.8 mph9.3 kmh 29.83 in1010.2 mb - 0.53 in13.5 mm 1.95 in49.5 mm
06:55 AM 70.3°F21.3°C 69.7°F20.9°C 98% 3.5 mph S5.6 kmh S 3.5 mph5.6 kmh 29.83 in1010.2 mb - 0.39 in9.9 mm 1.96 in49.8 mm
07:00 AM 70.3°F21.3°C 69.7°F20.9°C 98% 4.6 mph SW7.4 kmh SW 5.8 mph9.3 kmh 29.83 in1010.2 mb - 0.26 in6.6 mm 1.97 in50.0 mm
07:10 AM 70.2°F21.2°C 69.6°F20.9°C 98% 3.5 mph S5.6 kmh S 3.5 mph5.6 kmh 29.84 in1010.5 mb - 0.18 in4.6 mm 1.98 in50.3 mm
07:15 AM 70.2°F21.2°C 69.6°F20.9°C 98% 2.3 mph S3.7 kmh S 3.5 mph5.6 kmh 29.83 in1010.2 mb - 0.16 in4.1 mm 1.98 in50.3 mm
07:20 AM 70.2°F21.2°C 69.6°F20.9°C 98% 2.3 mph S3.7 kmh S 3.5 mph5.6 kmh 29.84 in1010.5 mb - 0.15 in3.8 mm 1.99 in50.5 mm
07:25 AM 70.2°F21.2°C 69.6°F20.9°C 98% 2.3 mph S3.7 kmh S 3.5 mph5.6 kmh 29.84 in1010.5 mb - 0.13 in3.3 mm 1.99 in50.5 mm
07:30 AM 70.3°F21.3°C 69.7°F20.9°C 98% 1.2 mph SSW1.9 kmh SSW 1.2 mph1.9 kmh 29.84 in1010.5 mb - 0.10 in2.5 mm 1.99 in50.5 mm
07:35 AM 70.3°F21.3°C 69.7°F20.9°C 98% 1.2 mph S1.9 kmh S -- 29.83 in1010.2 mb - 0.08 in2.0 mm 1.99 in50.5 mm
07:40 AM 70.5°F21.4°C 69.9°F21.1°C 98% Calm Calm 2.3 mph3.7 kmh 29.84 in1010.5 mb - 0.06 in1.5 mm 1.99 in50.5 mm
07:45 AM 70.5°F21.4°C 69.9°F21.1°C 98% 1.2 mph SSW1.9 kmh SSW 3.5 mph5.6 kmh 29.84 in1010.5 mb - 0.05 in1.3 mm 1.99 in50.5 mm
07:50 AM 70.9°F21.6°C 70.3°F21.3°C 98% 2.3 mph S3.7 kmh S 4.6 mph7.4 kmh 29.84 in1010.5 mb - 0.04 in1.0 mm 1.99 in50.5 mm
07:55 AM 71.1°F21.7°C 70.5°F21.4°C 98% 2.3 mph SSE3.7 kmh SSE 2.3 mph3.7 kmh 29.84 in1010.5 mb - 0.03 in0.8 mm 1.99 in50.5 mm
08:00 AM 71.1°F21.7°C 70.5°F21.4°C 98% 1.2 mph WSW1.9 kmh WSW 2.3 mph3.7 kmh 29.84 in1010.5 mb - 0.02 in0.5 mm 1.99 in50.5 mm
08:10 AM 71.4°F21.9°C 70.8°F21.6°C 98% Calm Calm -- 29.86 in1011.2 mb - 0.01 in0.3 mm 1.99 in50.5 mm
08:15 AM 71.4°F21.9°C 70.8°F21.6°C 98% 1.2 mph WSW1.9 kmh WSW 3.5 mph5.6 kmh 29.86 in1011.2 mb - 0.01 in0.3 mm 1.99 in50.5 mm
08:20 AM 71.8°F22.1°C 71.2°F21.8°C 98% Calm Calm 2.3 mph3.7 kmh 29.85 in1010.8 mb - 0.00 in0.0 mm 1.99 in50.5 mm
08:25 AM 72.0°F22.2°C 71.4°F21.9°C 98% 2.3 mph SSW3.7 kmh SSW 4.6 mph7.4 kmh 29.86 in1011.2 mb - 0.00 in0.0 mm 1.99 in50.5 mm
08:30 AM 72.1°F22.3°C 71.5°F21.9°C 98% 2.3 mph S3.7 kmh S 3.5 mph5.6 kmh 29.86 in1011.2 mb - 0.00 in0.0 mm 1.99 in50.5 mm
08:35 AM 72.3°F22.4°C 71.7°F22.1°C 98% 2.3 mph SW3.7 kmh SW 3.5 mph5.6 kmh 29.87 in1011.5 mb - 0.00 in0.0 mm 1.99 in50.5 mm
08:40 AM 72.6°F22.6°C 72.0°F22.2°C 98% 2.3 mph SSE3.7 kmh SSE 1.2 mph1.9 kmh 29.87 in1011.5 mb - 0.00 in0.0 mm 1.99 in50.5 mm
08:45 AM 73.0°F22.8°C 72.4°F22.4°C 98% 1.2 mph S1.9 kmh S 3.5 mph5.6 kmh 29.87 in1011.5 mb - 0.00 in0.0 mm 1.99 in50.5 mm
08:50 AM 73.0°F22.8°C 72.4°F22.4°C 98% 2.3 mph WSW3.7 kmh WSW 3.5 mph5.6 kmh 29.87 in1011.5 mb - 0.00 in0.0 mm 1.99 in50.5 mm
08:55 AM 73.2°F22.9°C 72.6°F22.6°C 98% 2.3 mph SW3.7 kmh SW 3.5 mph5.6 kmh 29.87 in1011.5 mb - 0.00 in0.0 mm 1.99 in50.5 mm
09:00 AM 73.0°F22.8°C 72.4°F22.4°C 98% 2.3 mph SW3.7 kmh SW 3.5 mph5.6 kmh 29.87 in1011.5 mb - 0.00 in0.0 mm 1.99 in50.5 mm
09:10 AM 73.4°F23.0°C 72.8°F22.7°C 98% 1.2 mph SW1.9 kmh SW 1.2 mph1.9 kmh 29.88 in1011.9 mb - 0.00 in0.0 mm 1.99 in50.5 mm
09:15 AM 73.4°F23.0°C 72.8°F22.7°C 98% 1.2 mph S1.9 kmh S 2.3 mph3.7 kmh 29.87 in1011.5 mb - 0.00 in0.0 mm 1.99 in50.5 mm
09:20 AM 73.6°F23.1°C 73.0°F22.8°C 98% 1.2 mph WSW1.9 kmh WSW 3.5 mph5.6 kmh 29.87 in1011.5 mb - 0.00 in0.0 mm 1.99 in50.5 mm
09:25 AM 73.4°F23.0°C 72.8°F22.7°C 98% 2.3 mph S3.7 kmh S 1.2 mph1.9 kmh 29.87 in1011.5 mb - 0.00 in0.0 mm 1.99 in50.5 mm
09:30 AM 73.6°F23.1°C 73.0°F22.8°C 98% 1.2 mph SW1.9 kmh SW 3.5 mph5.6 kmh 29.88 in1011.9 mb - 0.00 in0.0 mm 1.99 in50.5 mm
09:35 AM 73.6°F23.1°C 73.0°F22.8°C 98% 2.3 mph SW3.7 kmh SW 1.2 mph1.9 kmh 29.87 in1011.5 mb - 0.00 in0.0 mm 1.99 in50.5 mm
09:40 AM 73.8°F23.2°C 73.2°F22.9°C 98% 1.2 mph SW1.9 kmh SW 1.2 mph1.9 kmh 29.87 in1011.5 mb - 0.00 in0.0 mm 1.99 in50.5 mm
09:45 AM 73.9°F23.3°C 72.7°F22.6°C 96% 1.2 mph S1.9 kmh S 3.5 mph5.6 kmh 29.87 in1011.5 mb - 0.00 in0.0 mm 1.99 in50.5 mm
09:50 AM 73.9°F23.3°C 72.7°F22.6°C 96% 2.3 mph WSW3.7 kmh WSW 5.8 mph9.3 kmh 29.87 in1011.5 mb - 0.00 in0.0 mm 1.99 in50.5 mm
09:55 AM 74.3°F23.5°C 73.1°F22.8°C 96% 1.2 mph S1.9 kmh S 3.5 mph5.6 kmh 29.87 in1011.5 mb - 0.00 in0.0 mm 1.99 in50.5 mm
10:00 AM 74.5°F23.6°C 73.0°F22.8°C 95% 2.3 mph SSW3.7 kmh SSW 3.5 mph5.6 kmh 29.87 in1011.5 mb - 0.00 in0.0 mm 1.99 in50.5 mm
10:10 AM 74.8°F23.8°C 73.3°F22.9°C 95% 2.3 mph SW3.7 kmh SW 2.3 mph3.7 kmh 29.87 in1011.5 mb - 0.00 in0.0 mm 1.99 in50.5 mm
10:15 AM 75.0°F23.9°C 72.9°F22.7°C 93% 2.3 mph WSW3.7 kmh WSW 2.3 mph3.7 kmh 29.87 in1011.5 mb - 0.00 in0.0 mm 1.99 in50.5 mm
10:20 AM 75.0°F23.9°C 73.2°F22.9°C 94% 1.2 mph W1.9 kmh W 2.3 mph3.7 kmh 29.87 in1011.5 mb - 0.00 in0.0 mm 1.99 in50.5 mm
10:25 AM 75.4°F24.1°C 73.2°F22.9°C 93% 2.3 mph SW3.7 kmh SW 3.5 mph5.6 kmh 29.87 in1011.5 mb - 0.00 in0.0 mm 1.99 in50.5 mm
10:30 AM 75.0°F23.9°C 72.9°F22.7°C 93% 2.3 mph WSW3.7 kmh WSW 3.5 mph5.6 kmh 29.87 in1011.5 mb - 0.00 in0.0 mm 1.99 in50.5 mm
10:35 AM 75.0°F23.9°C 72.9°F22.7°C 93% 2.3 mph W3.7 kmh W 1.2 mph1.9 kmh 29.86 in1011.2 mb - 0.00 in0.0 mm 1.99 in50.5 mm
10:40 AM 75.0°F23.9°C 72.9°F22.7°C 93% 1.2 mph W1.9 kmh W 2.3 mph3.7 kmh 29.87 in1011.5 mb - 0.00 in0.0 mm 1.99 in50.5 mm
10:45 AM 75.0°F23.9°C 72.9°F22.7°C 93% 1.2 mph N1.9 kmh N 2.3 mph3.7 kmh 29.86 in1011.2 mb - 0.00 in0.0 mm 1.99 in50.5 mm
10:50 AM 75.0°F23.9°C 72.9°F22.7°C 93% 1.2 mph W1.9 kmh W 2.3 mph3.7 kmh 29.86 in1011.2 mb - 0.00 in0.0 mm 1.99 in50.5 mm
10:55 AM 75.0°F23.9°C 72.9°F22.7°C 93% 1.2 mph NW1.9 kmh NW 3.5 mph5.6 kmh 29.86 in1011.2 mb - 0.00 in0.0 mm 1.99 in50.5 mm
11:00 AM 75.0°F23.9°C 72.9°F22.7°C 93% 2.3 mph NW3.7 kmh NW 3.5 mph5.6 kmh 29.87 in1011.5 mb - 0.00 in0.0 mm 1.99 in50.5 mm
11:10 AM 75.6°F24.2°C 72.7°F22.6°C 91% 2.3 mph W3.7 kmh W 3.5 mph5.6 kmh 29.87 in1011.5 mb - 0.00 in0.0 mm 1.99 in50.5 mm
11:15 AM 75.4°F24.1°C 72.6°F22.6°C 91% 2.3 mph WNW3.7 kmh WNW 3.5 mph5.6 kmh 29.88 in1011.9 mb - 0.00 in0.0 mm 1.99 in50.5 mm
11:20 AM 75.6°F24.2°C 72.7°F22.6°C 91% 2.3 mph WNW3.7 kmh WNW 4.6 mph7.4 kmh 29.88 in1011.9 mb - 0.00 in0.0 mm 1.99 in50.5 mm
11:25 AM 75.6°F24.2°C 72.7°F22.6°C 91% 3.5 mph NW5.6 kmh NW 4.6 mph7.4 kmh 29.88 in1011.9 mb - 0.00 in0.0 mm 1.99 in50.5 mm
11:30 AM 75.6°F24.2°C 72.7°F22.6°C 91% 2.3 mph N3.7 kmh N 2.3 mph3.7 kmh 29.88 in1011.9 mb - 0.00 in0.0 mm 1.99 in50.5 mm
11:35 AM 75.4°F24.1°C 72.6°F22.6°C 91% 2.3 mph W3.7 kmh W 3.5 mph5.6 kmh 29.88 in1011.9 mb - 0.00 in0.0 mm 1.99 in50.5 mm
11:40 AM 75.4°F24.1°C 72.6°F22.6°C 91% 2.3 mph N3.7 kmh N 2.3 mph3.7 kmh 29.88 in1011.9 mb - 0.00 in0.0 mm 1.99 in50.5 mm
11:45 AM 75.4°F24.1°C 72.6°F22.6°C 91% 2.3 mph N3.7 kmh N 2.3 mph3.7 kmh 29.88 in1011.9 mb - 0.00 in0.0 mm 1.99 in50.5 mm
11:50 AM 75.6°F24.2°C 72.7°F22.6°C 91% 1.2 mph NW1.9 kmh NW 2.3 mph3.7 kmh 29.88 in1011.9 mb - 0.00 in0.0 mm 1.99 in50.5 mm
11:55 AM 75.6°F24.2°C 72.7°F22.6°C 91% 2.3 mph NNW3.7 kmh NNW 4.6 mph7.4 kmh 29.89 in1012.2 mb - 0.00 in0.0 mm 1.99 in50.5 mm
12:00 PM 75.1°F23.9°C 72.2°F22.3°C 91% 3.5 mph NNW5.6 kmh NNW 3.5 mph5.6 kmh 29.89 in1012.2 mb - 0.00 in0.0 mm 1.99 in50.5 mm
12:10 PM 74.7°F23.7°C 71.9°F22.2°C 91% 1.2 mph N1.9 kmh N 2.3 mph3.7 kmh 29.88 in1011.9 mb - 0.00 in0.0 mm 1.99 in50.5 mm
12:15 PM 74.7°F23.7°C 71.9°F22.2°C 91% 1.2 mph NW1.9 kmh NW 1.2 mph1.9 kmh 29.89 in1012.2 mb - 0.00 in0.0 mm 1.99 in50.5 mm
12:20 PM 74.7°F23.7°C 71.9°F22.2°C 91% 1.2 mph NW1.9 kmh NW 2.3 mph3.7 kmh 29.89 in1012.2 mb - 0.00 in0.0 mm 1.99 in50.5 mm
12:25 PM 74.7°F23.7°C 71.9°F22.2°C 91% 1.2 mph E1.9 kmh E 1.2 mph1.9 kmh 29.89 in1012.2 mb - 0.00 in0.0 mm 1.99 in50.5 mm
12:30 PM 74.7°F23.7°C 71.9°F22.2°C 91% 1.2 mph N1.9 kmh N 3.5 mph5.6 kmh 29.90 in1012.5 mb - 0.00 in0.0 mm 1.99 in50.5 mm
12:35 PM 73.9°F23.3°C 71.8°F22.1°C 93% 1.2 mph NE1.9 kmh NE 2.3 mph3.7 kmh 29.89 in1012.2 mb - 0.00 in0.0 mm 1.99 in50.5 mm
12:40 PM 73.9°F23.3°C 71.8°F22.1°C 93% 1.2 mph NE1.9 kmh NE 1.2 mph1.9 kmh 29.90 in1012.5 mb - 0.00 in0.0 mm 1.99 in50.5 mm
12:45 PM 73.8°F23.2°C 71.6°F22.0°C 93% 1.2 mph NNE1.9 kmh NNE 3.5 mph5.6 kmh 29.90 in1012.5 mb - 0.00 in0.0 mm 1.99 in50.5 mm
12:50 PM 73.8°F23.2°C 71.6°F22.0°C 93% 1.2 mph NE1.9 kmh NE 2.3 mph3.7 kmh 29.90 in1012.5 mb - 0.00 in0.0 mm 1.99 in50.5 mm
12:55 PM 73.9°F23.3°C 71.1°F21.7°C 91% 1.2 mph W1.9 kmh W 3.5 mph5.6 kmh 29.90 in1012.5 mb - 0.00 in0.0 mm 1.99 in50.5 mm
01:00 PM 73.9°F23.3°C 71.1°F21.7°C 91% 1.2 mph NE1.9 kmh NE 2.3 mph3.7 kmh 29.90 in1012.5 mb - 0.00 in0.0 mm 1.99 in50.5 mm
01:10 PM 73.0°F22.8°C 70.3°F21.3°C 91% 1.2 mph NE1.9 kmh NE 3.5 mph5.6 kmh 29.90 in1012.5 mb - 0.00 in0.0 mm 1.99 in50.5 mm
01:15 PM 73.4°F23.0°C 70.6°F21.4°C 91% 1.2 mph NNE1.9 kmh NNE 3.5 mph5.6 kmh 29.90 in1012.5 mb - 0.00 in0.0 mm 1.99 in50.5 mm
01:20 PM 73.9°F23.3°C 71.1°F21.7°C 91% 1.2 mph NW1.9 kmh NW -- 29.90 in1012.5 mb - 0.00 in0.0 mm 1.99 in50.5 mm
01:25 PM 73.9°F23.3°C 71.1°F21.7°C 91% 1.2 mph NE1.9 kmh NE 2.3 mph3.7 kmh 29.91 in1012.9 mb - 0.00 in0.0 mm 1.99 in50.5 mm
01:30 PM 73.9°F23.3°C 71.1°F21.7°C 91% 2.3 mph WNW3.7 kmh WNW 3.5 mph5.6 kmh 29.91 in1012.9 mb - 0.00 in0.0 mm 1.99 in50.5 mm
01:35 PM 74.5°F23.6°C 71.7°F22.1°C 91% 1.2 mph N1.9 kmh N 3.5 mph5.6 kmh 29.90 in1012.5 mb - 0.00 in0.0 mm 1.99 in50.5 mm
01:40 PM 74.5°F23.6°C 71.7°F22.1°C 91% 2.3 mph WNW3.7 kmh WNW 3.5 mph5.6 kmh 29.90 in1012.5 mb - 0.00 in0.0 mm 1.99 in50.5 mm
01:45 PM 74.7°F23.7°C 71.5°F21.9°C 90% 2.3 mph NNE3.7 kmh NNE 1.2 mph1.9 kmh 29.90 in1012.5 mb - 0.00 in0.0 mm 1.99 in50.5 mm
01:50 PM 74.6°F23.7°C 71.4°F21.9°C 90% 2.3 mph N3.7 kmh N 3.5 mph5.6 kmh 29.90 in1012.5 mb - 0.00 in0.0 mm 1.99 in50.5 mm
01:55 PM 74.4°F23.6°C 71.6°F22.0°C 91% 2.3 mph N3.7 kmh N 5.8 mph9.3 kmh 29.90 in1012.5 mb - 0.00 in0.0 mm 1.99 in50.5 mm
02:00 PM 73.9°F23.3°C 71.1°F21.7°C 91% 2.3 mph NNE3.7 kmh NNE 3.5 mph5.6 kmh 29.90 in1012.5 mb - 0.00 in0.0 mm 1.99 in50.5 mm
02:10 PM 72.5°F22.5°C 70.7°F21.5°C 94% 1.2 mph NW1.9 kmh NW 2.3 mph3.7 kmh 29.90 in1012.5 mb - 0.01 in0.3 mm 2.00 in50.8 mm
02:15 PM 72.5°F22.5°C 71.3°F21.8°C 96% Calm Calm -- 29.91 in1012.9 mb - 0.01 in0.3 mm 2.00 in50.8 mm
02:20 PM 72.7°F22.6°C 71.5°F21.9°C 96% 1.2 mph NE1.9 kmh NE 5.8 mph9.3 kmh 29.91 in1012.9 mb - 0.03 in0.8 mm 2.02 in51.3 mm
02:25 PM 70.5°F21.4°C 68.4°F20.2°C 93% 4.6 mph NE7.4 kmh NE 5.8 mph9.3 kmh 29.91 in1012.9 mb - 0.03 in0.8 mm 2.02 in51.3 mm
02:30 PM 69.3°F20.7°C 67.2°F19.6°C 93% 3.5 mph NNW5.6 kmh NNW 5.8 mph9.3 kmh 29.92 in1013.2 mb - 0.04 in1.0 mm 2.03 in51.6 mm
02:35 PM 68.5°F20.3°C 66.4°F19.1°C 93% 3.5 mph NE5.6 kmh NE 3.5 mph5.6 kmh 29.92 in1013.2 mb - 0.04 in1.0 mm 2.03 in51.6 mm
02:40 PM 68.3°F20.2°C 66.9°F19.4°C 95% 3.5 mph N5.6 kmh N 6.9 mph11.1 kmh 29.91 in1012.9 mb - 0.04 in1.0 mm 2.03 in51.6 mm
02:45 PM 67.8°F19.9°C 66.3°F19.1°C 95% 4.6 mph NNE7.4 kmh NNE 6.9 mph11.1 kmh 29.91 in1012.9 mb - 0.04 in1.0 mm 2.03 in51.6 mm
02:50 PM 67.8°F19.9°C 66.3°F19.1°C 95% 3.5 mph NW5.6 kmh NW 6.9 mph11.1 kmh 29.92 in1013.2 mb - 0.04 in1.0 mm 2.03 in51.6 mm
02:55 PM 67.6°F19.8°C 66.1°F18.9°C 95% 3.5 mph W5.6 kmh W 3.5 mph5.6 kmh 29.92 in1013.2 mb - 0.04 in1.0 mm 2.03 in51.6 mm
03:00 PM 67.8°F19.9°C 66.3°F19.1°C 95% 3.5 mph N5.6 kmh N 5.8 mph9.3 kmh 29.92 in1013.2 mb - 0.04 in1.0 mm 2.03 in51.6 mm
03:10 PM 68.6°F20.3°C 66.5°F19.2°C 93% 3.5 mph NNW5.6 kmh NNW 8.1 mph13.0 kmh 29.92 in1013.2 mb - 0.03 in0.8 mm 2.03 in51.6 mm
03:15 PM 69.7°F20.9°C 67.3°F19.6°C 92% 2.3 mph NE3.7 kmh NE 3.5 mph5.6 kmh 29.92 in1013.2 mb - 0.03 in0.8 mm 2.03 in51.6 mm
03:20 PM 70.0°F21.1°C 67.2°F19.6°C 91% 3.5 mph NE5.6 kmh NE 2.3 mph3.7 kmh 29.92 in1013.2 mb - 0.02 in0.5 mm 2.03 in51.6 mm
03:25 PM 70.5°F21.4°C 67.8°F19.9°C 91% 2.3 mph E3.7 kmh E 2.3 mph3.7 kmh 29.92 in1013.2 mb - 0.01 in0.3 mm 2.03 in51.6 mm
03:30 PM 70.4°F21.3°C 67.6°F19.8°C 91% 2.3 mph ESE3.7 kmh ESE 3.5 mph5.6 kmh 29.93 in1013.5 mb - 0.00 in0.0 mm 2.03 in51.6 mm
03:35 PM 70.1°F21.2°C 67.4°F19.7°C 91% 3.5 mph N5.6 kmh N 3.5 mph5.6 kmh 29.93 in1013.5 mb - 0.00 in0.0 mm 2.03 in51.6 mm
03:40 PM 70.0°F21.1°C 67.2°F19.6°C 91% 2.3 mph E3.7 kmh E 4.6 mph7.4 kmh 29.92 in1013.2 mb - 0.00 in0.0 mm 2.03 in51.6 mm
03:45 PM 70.0°F21.1°C 67.2°F19.6°C 91% 2.3 mph SE3.7 kmh SE 2.3 mph3.7 kmh 29.92 in1013.2 mb - 0.00 in0.0 mm 2.03 in51.6 mm
03:50 PM 70.2°F21.2°C 67.4°F19.7°C 91% 1.2 mph NW1.9 kmh NW 3.5 mph5.6 kmh 29.92 in1013.2 mb - 0.00 in0.0 mm 2.03 in51.6 mm
03:55 PM 70.2°F21.2°C 67.4°F19.7°C 91% 2.3 mph NE3.7 kmh NE 2.3 mph3.7 kmh 29.92 in1013.2 mb - 0.00 in0.0 mm 2.03 in51.6 mm
04:00 PM 70.2°F21.2°C 67.4°F19.7°C 91% 2.3 mph N3.7 kmh N 3.5 mph5.6 kmh 29.92 in1013.2 mb - 0.00 in0.0 mm 2.03 in51.6 mm
04:10 PM 70.2°F21.2°C 67.4°F19.7°C 91% 2.3 mph NE3.7 kmh NE 3.5 mph5.6 kmh 29.91 in1012.9 mb - 0.00 in0.0 mm 2.03 in51.6 mm
04:15 PM 70.2°F21.2°C 67.4°F19.7°C 91% 2.3 mph E3.7 kmh E 3.5 mph5.6 kmh 29.92 in1013.2 mb - 0.00 in0.0 mm 2.03 in51.6 mm
04:20 PM 70.2°F21.2°C 67.4°F19.7°C 91% 2.3 mph NNE3.7 kmh NNE 3.5 mph5.6 kmh 29.91 in1012.9 mb - 0.00 in0.0 mm 2.03 in51.6 mm
04:25 PM 70.3°F21.3°C 67.6°F19.8°C 91% 2.3 mph NW3.7 kmh NW 2.3 mph3.7 kmh 29.91 in1012.9 mb - 0.00 in0.0 mm 2.03 in51.6 mm
04:30 PM 70.3°F21.3°C 67.6°F19.8°C 91% 1.2 mph NE1.9 kmh NE 3.5 mph5.6 kmh 29.91 in1012.9 mb - 0.00 in0.0 mm 2.03 in51.6 mm
04:35 PM 70.3°F21.3°C 67.6°F19.8°C 91% 2.3 mph NE3.7 kmh NE 2.3 mph3.7 kmh 29.91 in1012.9 mb - 0.00 in0.0 mm 2.03 in51.6 mm
04:40 PM 70.3°F21.3°C 67.3°F19.6°C 90% 2.3 mph NE3.7 kmh NE 6.9 mph11.1 kmh 29.92 in1013.2 mb - 0.00 in0.0 mm 2.03 in51.6 mm
04:45 PM 70.3°F21.3°C 67.3°F19.6°C 90% 2.3 mph NW3.7 kmh NW 2.3 mph3.7 kmh 29.92 in1013.2 mb - 0.00 in0.0 mm 2.03 in51.6 mm
04:50 PM 70.3°F21.3°C 67.3°F19.6°C 90% 1.2 mph N1.9 kmh N 1.2 mph1.9 kmh 29.92 in1013.2 mb - 0.00 in0.0 mm 2.03 in51.6 mm
04:55 PM 70.4°F21.3°C 67.3°F19.6°C 90% 1.2 mph NE1.9 kmh NE 2.3 mph3.7 kmh 29.92 in1013.2 mb - 0.00 in0.0 mm 2.03 in51.6 mm
05:00 PM 70.5°F21.4°C 67.4°F19.7°C 90% 1.2 mph N1.9 kmh N 1.2 mph1.9 kmh 29.92 in1013.2 mb - 0.00 in0.0 mm 2.03 in51.6 mm
05:10 PM 70.5°F21.4°C 67.4°F19.7°C 90% 2.3 mph N3.7 kmh N 2.3 mph3.7 kmh 29.92 in1013.2 mb - 0.00 in0.0 mm 2.03 in51.6 mm
05:15 PM 70.8°F21.6°C 67.7°F19.8°C 90% 2.3 mph ESE3.7 kmh ESE 5.8 mph9.3 kmh 29.91 in1012.9 mb - 0.00 in0.0 mm 2.03 in51.6 mm
05:20 PM 71.1°F21.7°C 67.3°F19.6°C 88% 2.3 mph N3.7 kmh N 2.3 mph3.7 kmh 29.92 in1013.2 mb - 0.00 in0.0 mm 2.03 in51.6 mm
05:25 PM 71.1°F21.7°C 67.3°F19.6°C 88% 2.3 mph NE3.7 kmh NE 3.5 mph5.6 kmh 29.92 in1013.2 mb - 0.00 in0.0 mm 2.03 in51.6 mm
05:30 PM 71.4°F21.9°C 67.0°F19.4°C 86% 2.3 mph NW3.7 kmh NW 5.8 mph9.3 kmh 29.92 in1013.2 mb - 0.00 in0.0 mm 2.03 in51.6 mm
05:35 PM 71.5°F21.9°C 67.1°F19.5°C 86% 2.3 mph NE3.7 kmh NE 3.5 mph5.6 kmh 29.92 in1013.2 mb - 0.00 in0.0 mm 2.03 in51.6 mm
05:40 PM 72.0°F22.2°C 67.6°F19.8°C 86% 2.3 mph NNE3.7 kmh NNE 2.3 mph3.7 kmh 29.92 in1013.2 mb - 0.00 in0.0 mm 2.03 in51.6 mm
05:45 PM 72.5°F22.5°C 68.1°F20.1°C 86% 2.3 mph NE3.7 kmh NE 3.5 mph5.6 kmh 29.91 in1012.9 mb - 0.00 in0.0 mm 2.03 in51.6 mm
05:50 PM 73.0°F22.8°C 68.2°F20.1°C 85% 3.5 mph N5.6 kmh N 3.5 mph5.6 kmh 29.92 in1013.2 mb - 0.00 in0.0 mm 2.03 in51.6 mm
05:55 PM 73.0°F22.8°C 68.2°F20.1°C 85% 1.2 mph SE1.9 kmh SE 3.5 mph5.6 kmh 29.92 in1013.2 mb - 0.00 in0.0 mm 2.03 in51.6 mm
06:00 PM 72.5°F22.5°C 67.7°F19.8°C 85% 2.3 mph NE3.7 kmh NE 4.6 mph7.4 kmh 29.92 in1013.2 mb - 0.00 in0.0 mm 2.03 in51.6 mm
06:10 PM 73.7°F23.2°C 68.2°F20.1°C 83% 2.3 mph NNE3.7 kmh NNE 2.3 mph3.7 kmh 29.92 in1013.2 mb - 0.00 in0.0 mm 2.03 in51.6 mm
06:15 PM 73.8°F23.2°C 67.6°F19.8°C 81% 3.5 mph N5.6 kmh N 3.5 mph5.6 kmh 29.92 in1013.2 mb - 0.00 in0.0 mm 2.03 in51.6 mm
06:20 PM 73.8°F23.2°C 67.6°F19.8°C 81% 2.3 mph E3.7 kmh E 2.3 mph3.7 kmh 29.92 in1013.2 mb - 0.00 in0.0 mm 2.03 in51.6 mm
06:25 PM 73.9°F23.3°C 67.7°F19.8°C 81% 2.3 mph NE3.7 kmh NE 2.3 mph3.7 kmh 29.92 in1013.2 mb - 0.00 in0.0 mm 2.03 in51.6 mm
06:30 PM 73.9°F23.3°C 67.4°F19.7°C 80% 2.3 mph SW3.7 kmh SW 3.5 mph5.6 kmh 29.92 in1013.2 mb - 0.00 in0.0 mm 2.03 in51.6 mm
06:35 PM 73.8°F23.2°C 65.4°F18.6°C 75% 2.3 mph S3.7 kmh S 3.5 mph5.6 kmh 29.93 in1013.5 mb - 0.00 in0.0 mm 2.03 in51.6 mm
06:40 PM 73.8°F23.2°C 65.7°F18.7°C 76% 2.3 mph SW3.7 kmh SW 4.6 mph7.4 kmh 29.93 in1013.5 mb - 0.00 in0.0 mm 2.03 in51.6 mm
06:45 PM 73.6°F23.1°C 65.5°F18.6°C 76% 1.2 mph N1.9 kmh N 3.5 mph5.6 kmh 29.93 in1013.5 mb - 0.00 in0.0 mm 2.03 in51.6 mm
06:50 PM 72.7°F22.6°C 65.4°F18.6°C 78% 1.2 mph NE1.9 kmh NE 2.3 mph3.7 kmh 29.93 in1013.5 mb - 0.00 in0.0 mm 2.03 in51.6 mm
06:55 PM 72.1°F22.3°C 65.6°F18.7°C 80% 1.2 mph N1.9 kmh N 3.5 mph5.6 kmh 29.93 in1013.5 mb - 0.00 in0.0 mm 2.03 in51.6 mm
07:00 PM 72.0°F22.2°C 65.1°F18.4°C 79% 1.2 mph ESE1.9 kmh ESE 2.3 mph3.7 kmh 29.94 in1013.9 mb - 0.00 in0.0 mm 2.03 in51.6 mm
07:10 PM 72.5°F22.5°C 65.6°F18.7°C 79% Calm Calm -- 29.94 in1013.9 mb - 0.00 in0.0 mm 2.03 in51.6 mm
07:15 PM 72.1°F22.3°C 65.6°F18.7°C 80% Calm Calm -- 29.94 in1013.9 mb - 0.00 in0.0 mm 2.03 in51.6 mm
07:20 PM 72.0°F22.2°C 65.8°F18.8°C 81% Calm Calm -- 29.94 in1013.9 mb - 0.00 in0.0 mm 2.03 in51.6 mm
07:25 PM 71.8°F22.1°C 65.6°F18.7°C 81% Calm Calm -- 29.95 in1014.2 mb - 0.00 in0.0 mm 2.03 in51.6 mm
07:30 PM 71.4°F21.9°C 65.3°F18.5°C 81% Calm Calm -- 29.95 in1014.2 mb - 0.00 in0.0 mm 2.03 in51.6 mm
07:35 PM 71.4°F21.9°C 65.3°F18.5°C 81% Calm Calm -- 29.95 in1014.2 mb - 0.00 in0.0 mm 2.03 in51.6 mm
07:40 PM 71.4°F21.9°C 66.0°F18.9°C 83% Calm Calm -- 29.96 in1014.6 mb - 0.00 in0.0 mm 2.03 in51.6 mm
07:45 PM 71.4°F21.9°C 66.0°F18.9°C 83% Calm Calm -- 29.95 in1014.2 mb - 0.00 in0.0 mm 2.03 in51.6 mm
07:50 PM 71.1°F21.7°C 65.6°F18.7°C 83% Calm Calm -- 29.95 in1014.2 mb - 0.00 in0.0 mm 2.03 in51.6 mm
07:55 PM 71.0°F21.7°C 65.6°F18.7°C 83% Calm Calm -- 29.96 in1014.6 mb - 0.00 in0.0 mm 2.03 in51.6 mm
08:00 PM 70.5°F21.4°C 65.1°F18.4°C 83% Calm Calm -- 29.96 in1014.6 mb - 0.00 in0.0 mm 2.03 in51.6 mm
08:10 PM 70.5°F21.4°C 65.8°F18.8°C 85% Calm Calm -- 29.96 in1014.6 mb - 0.00 in0.0 mm 2.03 in51.6 mm
08:15 PM 70.3°F21.3°C 65.6°F18.7°C 85% Calm Calm -- 29.96 in1014.6 mb - 0.00 in0.0 mm 2.03 in51.6 mm
08:20 PM 70.2°F21.2°C 65.4°F18.6°C 85% Calm Calm -- 29.96 in1014.6 mb - 0.00 in0.0 mm 2.03 in51.6 mm
08:25 PM 70.0°F21.1°C 65.6°F18.7°C 86% Calm Calm -- 29.96 in1014.6 mb - 0.00 in0.0 mm 2.03 in51.6 mm
08:30 PM 69.8°F21.0°C 65.4°F18.6°C 86% Calm Calm -- 29.96 in1014.6 mb - 0.00 in0.0 mm 2.03 in51.6 mm
08:35 PM 69.4°F20.8°C 65.1°F18.4°C 86% Calm Calm -- 29.96 in1014.6 mb - 0.00 in0.0 mm 2.03 in51.6 mm
08:40 PM 69.3°F20.7°C 64.9°F18.3°C 86% Calm Calm -- 29.96 in1014.6 mb - 0.00 in0.0 mm 2.03 in51.6 mm
08:45 PM 69.3°F20.7°C 64.9°F18.3°C 86% Calm Calm -- 29.96 in1014.6 mb - 0.00 in0.0 mm 2.03 in51.6 mm
08:50 PM 68.9°F20.5°C 64.5°F18.1°C 86% Calm Calm -- 29.97 in1014.9 mb - 0.00 in0.0 mm 2.03 in51.6 mm
08:55 PM 68.5°F20.3°C 64.8°F18.2°C 88% Calm Calm -- 29.97 in1014.9 mb - 0.00 in0.0 mm 2.03 in51.6 mm
09:00 PM 68.5°F20.3°C 64.8°F18.2°C 88% Calm Calm -- 29.97 in1014.9 mb - 0.00 in0.0 mm 2.03 in51.6 mm
09:10 PM 68.4°F20.2°C 64.7°F18.2°C 88% Calm Calm -- 29.97 in1014.9 mb - 0.00 in0.0 mm 2.03 in51.6 mm
09:15 PM 68.2°F20.1°C 64.5°F18.1°C 88% Calm Calm -- 29.97 in1014.9 mb - 0.00 in0.0 mm 2.03 in51.6 mm
09:20 PM 68.0°F20.0°C 64.3°F17.9°C 88% Calm Calm -- 29.97 in1014.9 mb - 0.00 in0.0 mm 2.03 in51.6 mm
09:25 PM 67.5°F19.7°C 63.8°F17.7°C 88% Calm Calm -- 29.97 in1014.9 mb - 0.00 in0.0 mm 2.03 in51.6 mm
09:30 PM 67.5°F19.7°C 63.8°F17.7°C 88% Calm Calm -- 29.97 in1014.9 mb - 0.00 in0.0 mm 2.03 in51.6 mm
09:35 PM 67.3°F19.6°C 63.6°F17.6°C 88% Calm Calm -- 29.97 in1014.9 mb - 0.00 in0.0 mm 2.03 in51.6 mm
09:40 PM 67.1°F19.5°C 63.4°F17.4°C 88% Calm Calm -- 29.97 in1014.9 mb - 0.00 in0.0 mm 2.03 in51.6 mm
09:45 PM 66.9°F19.4°C 63.9°F17.7°C 90% Calm Calm -- 29.98 in1015.2 mb - 0.00 in0.0 mm 2.03 in51.6 mm
09:50 PM 66.6°F19.2°C 63.5°F17.5°C 90% Calm Calm 1.2 mph1.9 kmh 29.97 in1014.9 mb - 0.00 in0.0 mm 2.03 in51.6 mm
09:55 PM 66.6°F19.2°C 63.5°F17.5°C 90% Calm Calm -- 29.97 in1014.9 mb - 0.00 in0.0 mm 2.03 in51.6 mm
10:00 PM 66.6°F19.2°C 63.5°F17.5°C 90% Calm Calm 1.2 mph1.9 kmh 29.96 in1014.6 mb - 0.00 in0.0 mm 2.03 in51.6 mm
10:10 PM 66.6°F19.2°C 63.5°F17.5°C 90% Calm Calm -- 29.97 in1014.9 mb - 0.00 in0.0 mm 2.03 in51.6 mm
10:15 PM 66.6°F19.2°C 63.5°F17.5°C 90% Calm Calm -- 29.97 in1014.9 mb - 0.00 in0.0 mm 2.03 in51.6 mm
10:20 PM 66.4°F19.1°C 63.4°F17.4°C 90% 1.2 mph NW1.9 kmh NW 2.3 mph3.7 kmh 29.97 in1014.9 mb - 0.00 in0.0 mm 2.03 in51.6 mm
10:25 PM 66.4°F19.1°C 63.7°F17.6°C 91% Calm Calm 2.3 mph3.7 kmh 29.97 in1014.9 mb - 0.00 in0.0 mm 2.03 in51.6 mm
10:30 PM 66.6°F19.2°C 63.9°F17.7°C 91% Calm Calm -- 29.97 in1014.9 mb - 0.00 in0.0 mm 2.03 in51.6 mm
10:35 PM 66.6°F19.2°C 63.9°F17.7°C 91% Calm Calm -- 29.97 in1014.9 mb - 0.00 in0.0 mm 2.03 in51.6 mm
10:40 PM 66.6°F19.2°C 63.9°F17.7°C 91% Calm Calm -- 29.98 in1015.2 mb - 0.00 in0.0 mm 2.03 in51.6 mm
10:45 PM 66.6°F19.2°C 63.9°F17.7°C 91% Calm Calm -- 29.98 in1015.2 mb - 0.00 in0.0 mm 2.03 in51.6 mm
10:50 PM 66.6°F19.2°C 63.9°F17.7°C 91% Calm Calm 1.2 mph1.9 kmh 29.99 in1015.6 mb - 0.00 in0.0 mm 2.03 in51.6 mm
10:55 PM 66.6°F19.2°C 63.9°F17.7°C 91% Calm Calm -- 29.98 in1015.2 mb - 0.00 in0.0 mm 2.03 in51.6 mm
11:00 PM 66.6°F19.2°C 63.9°F17.7°C 91% Calm Calm 2.3 mph3.7 kmh 29.99 in1015.6 mb - 0.00 in0.0 mm 2.03 in51.6 mm
11:10 PM 66.6°F19.2°C 62.9°F17.2°C 88% 1.2 mph NE1.9 kmh NE 2.3 mph3.7 kmh 29.99 in1015.6 mb - 0.00 in0.0 mm 2.03 in51.6 mm
11:15 PM 66.9°F19.4°C 62.3°F16.8°C 85% 2.3 mph NE3.7 kmh NE 3.5 mph5.6 kmh 29.99 in1015.6 mb - 0.00 in0.0 mm 2.03 in51.6 mm
11:20 PM 67.2°F19.6°C 61.9°F16.6°C 83% 1.2 mph SE1.9 kmh SE 1.2 mph1.9 kmh 29.99 in1015.6 mb - 0.00 in0.0 mm 2.03 in51.6 mm
11:25 PM 67.3°F19.6°C 61.9°F16.6°C 83% 1.2 mph N1.9 kmh N 3.5 mph5.6 kmh 30.00 in1015.9 mb - 0.00 in0.0 mm 2.03 in51.6 mm
11:30 PM 67.3°F19.6°C 61.9°F16.6°C 83% 1.2 mph NNW1.9 kmh NNW 4.6 mph7.4 kmh 30.00 in1015.9 mb - 0.00 in0.0 mm 2.03 in51.6 mm
11:35 PM 67.3°F19.6°C 61.2°F16.2°C 81% 2.3 mph SE3.7 kmh SE 2.3 mph3.7 kmh 30.00 in1015.9 mb - 0.00 in0.0 mm 2.03 in51.6 mm
11:40 PM 67.3°F19.6°C 61.2°F16.2°C 81% 1.2 mph NNE1.9 kmh NNE 2.3 mph3.7 kmh 29.99 in1015.6 mb - 0.00 in0.0 mm 2.03 in51.6 mm
11:45 PM 67.3°F19.6°C 60.9°F16.1°C 80% 1.2 mph NW1.9 kmh NW 1.2 mph1.9 kmh 30.00 in1015.9 mb - 0.00 in0.0 mm 2.03 in51.6 mm
11:50 PM 67.3°F19.6°C 60.9°F16.1°C 80% 1.2 mph NW1.9 kmh NW 2.3 mph3.7 kmh 30.00 in1015.9 mb - 0.00 in0.0 mm 2.03 in51.6 mm
11:55 PM 67.3°F19.6°C 60.9°F16.1°C 80% 1.2 mph ENE1.9 kmh ENE 2.3 mph3.7 kmh 29.99 in1015.6 mb - 0.00 in0.0 mm 2.03 in51.6 mm